Time;durP1;ratioP1;P1;durP2;ratioP2;P2;SDS_P1;SDS_P2;PMS_P1;PMS_P2;Temp;Humidity;BMP_temperature;BMP_pressure;BME280_temperature;BME280_humidity;BME280_pressure;Samples;Min_cycle;Max_cycle;Signal;HPM_P1;HPM_P2
2023/08/23 00:01:43;;;;;;;9.45;3.83;;;;;;;16.56;100.00;101888.63;5010745;28;20052;-54
2023/08/23 00:04:11;;;;;;;8.15;3.70;;;;;;;16.46;100.00;101880.50;5011846;28;20038;-54
2023/08/23 00:06:44;;;;;;;10.00;4.03;;;;;;;16.50;100.00;101879.28;5017687;28;20086;-55
2023/08/23 00:09:12;;;;;;;5.60;3.17;;;;;;;16.45;100.00;101880.59;5031654;28;20128;-54
2023/08/23 00:11:43;;;;;;;6.97;3.47;;;;;;;16.50;100.00;101886.44;5029273;28;20100;-53
2023/08/23 00:14:11;;;;;;;11.68;4.05;;;;;;;16.40;100.00;101878.28;5028538;28;20120;-53
2023/08/23 00:16:40;;;;;;;6.90;3.85;;;;;;;16.38;100.00;101886.34;5027984;28;20493;-52
2023/08/23 00:19:08;;;;;;;7.57;3.53;;;;;;;16.36;100.00;101875.00;5011736;28;20459;-53
2023/08/23 00:21:38;;;;;;;7.22;3.85;;;;;;;16.36;100.00;101872.34;5011416;28;20081;-53
2023/08/23 00:24:08;;;;;;;7.18;3.75;;;;;;;16.37;100.00;101875.84;5011670;28;20380;-54
2023/08/23 00:26:36;;;;;;;6.97;3.85;;;;;;;16.33;100.00;101877.91;5016787;28;20052;-55
2023/08/23 00:29:05;;;;;;;9.30;4.47;;;;;;;16.20;100.00;101872.63;5031496;28;20059;-56
2023/08/23 00:31:33;;;;;;;7.57;3.47;;;;;;;16.27;100.00;101873.03;5030473;28;20049;-54
2023/08/23 00:34:01;;;;;;;9.95;3.50;;;;;;;16.17;100.00;101872.84;5027004;28;20095;-52
2023/08/23 00:36:29;;;;;;;7.88;4.18;;;;;;;16.17;100.00;101875.50;5025085;28;20538;-55
2023/08/23 00:39:01;;;;;;;8.55;3.90;;;;;;;16.17;100.00;101872.00;5010688;28;20049;-53
2023/08/23 00:41:30;;;;;;;8.93;3.97;;;;;;;16.13;100.00;101867.88;5011520;28;20103;-53
2023/08/23 00:43:58;;;;;;;8.52;3.85;;;;;;;16.05;100.00;101863.97;5011466;28;20084;-53
2023/08/23 00:46:26;;;;;;;7.63;3.47;;;;;;;16.06;100.00;101867.50;5026582;28;20045;-54
2023/08/23 00:48:55;;;;;;;7.10;3.70;;;;;;;16.06;100.00;101870.16;5011609;28;20045;-52
2023/08/23 00:51:24;;;;;;;8.23;3.50;;;;;;;16.07;100.00;101871.81;5009087;28;20057;-53
2023/08/23 00:53:52;;;;;;;6.72;3.53;;;;;;;16.03;100.00;101875.66;5007036;28;20042;-52
2023/08/23 00:56:21;;;;;;;8.20;3.50;;;;;;;15.99;100.00;101875.03;5010582;28;20054;-52
2023/08/23 00:58:50;;;;;;;11.23;3.88;;;;;;;15.93;100.00;101875.47;5022489;28;20081;-53
2023/08/23 01:01:21;;;;;;;;;;;;;;;15.91;100.00;101869.44;5028388;28;20643;-50
2023/08/23 01:03:50;;;;;;;7.25;3.85;;;;;;;15.87;100.00;101867.97;5029320;28;19925;-53
2023/08/23 01:06:32;;;;;;;7.43;3.67;;;;;;;15.88;100.00;101862.53;5034138;28;20045;-53
2023/08/23 01:09:10;;;;;;;8.43;4.13;;;;;;;15.86;100.00;101860.97;5017299;28;20054;-56
2023/08/23 01:11:49;;;;;;;8.00;3.35;;;;;;;15.84;100.00;101866.38;5012176;28;20108;-53
2023/08/23 01:14:26;;;;;;;8.57;3.35;;;;;;;15.79;100.00;101857.88;5014944;28;20038;-53
2023/08/23 01:16:57;;;;;;;6.88;3.20;;;;;;;15.84;100.00;101862.84;5014718;28;20104;-52
2023/08/23 01:19:45;;;;;;;6.15;3.70;;;;;;;15.84;100.00;101871.69;5029605;28;20154;-53
2023/08/23 01:22:18;;;;;;;7.00;3.45;;;;;;;15.72;100.00;101868.06;5023731;28;20140;-53
2023/08/23 01:24:52;;;;;;;8.35;3.58;;;;;;;15.67;100.00;101864.88;5033540;28;20112;-51
2023/08/23 01:27:24;;;;;;;6.43;2.97;;;;;;;15.69;100.00;101872.72;5031664;28;20060;-54
2023/08/23 01:29:52;;;;;;;7.15;3.17;;;;;;;15.65;100.00;101866.81;5016456;28;20568;-53
2023/08/23 01:32:35;;;;;;;6.82;2.97;;;;;;;15.56;100.00;101859.50;5014932;28;20461;-53
2023/08/23 01:35:10;;;;;;;8.30;3.25;;;;;;;15.59;100.00;101867.22;5014497;28;20053;-55
2023/08/23 01:37:40;;;;;;;6.88;3.47;;;;;;;15.58;100.00;101854.91;5014465;28;20042;-53
2023/08/23 01:40:11;;;;;;;9.10;3.50;;;;;;;15.59;100.00;101856.63;5023382;28;20523;-54
2023/08/23 01:42:41;;;;;;;7.05;3.40;;;;;;;15.60;100.00;101858.31;5031611;28;20159;-52
2023/08/23 01:45:10;;;;;;;6.25;3.63;;;;;;;15.47;100.00;101849.53;5032520;28;20048;-53
2023/08/23 01:47:38;;;;;;;8.32;4.00;;;;;;;15.40;100.00;101851.75;5029011;28;20095;-53
2023/08/23 01:50:07;;;;;;;7.65;3.80;;;;;;;15.35;100.00;101849.44;5019678;28;20214;-53
2023/08/23 01:52:35;;;;;;;7.70;3.80;;;;;;;15.33;100.00;101851.34;5004455;28;20216;-53
2023/08/23 01:55:04;;;;;;;11.30;4.20;;;;;;;15.40;100.00;101851.75;5014179;28;20030;-52
2023/08/23 01:57:33;;;;;;;7.97;3.88;;;;;;;15.42;100.00;101851.63;5011714;28;20080;-51
2023/08/23 02:00:02;;;;;;;9.18;4.10;;;;;;;15.48;100.00;101861.84;5011641;28;20560;-54
2023/08/23 02:02:30;;;;;;;6.75;3.65;;;;;;;15.52;100.00;101861.50;5013025;28;20397;-53
2023/08/23 02:04:58;;;;;;;7.80;3.72;;;;;;;15.52;100.00;101856.19;5013712;28;20116;-51
2023/08/23 02:07:26;;;;;;;8.10;3.45;;;;;;;15.52;100.00;101856.19;5013354;28;20412;-54
2023/08/23 02:09:54;;;;;;;7.15;3.30;;;;;;;15.52;100.00;101848.25;5013238;28;20088;-53
2023/08/23 02:12:23;;;;;;;12.02;4.00;;;;;;;15.50;100.00;101862.56;5022972;28;20046;-54
2023/08/23 02:14:52;;;;;;;7.72;3.33;;;;;;;15.48;100.00;101856.53;5010522;28;20104;-54
2023/08/23 02:17:20;;;;;;;8.23;3.78;;;;;;;15.44;100.00;101853.22;5024759;28;20108;-54
2023/08/23 02:19:48;;;;;;;7.53;3.72;;;;;;;15.35;100.00;101849.44;5013066;28;20100;-52
2023/08/23 02:22:16;;;;;;;7.80;3.47;;;;;;;15.33;100.00;101845.19;5009417;28;20054;-53
2023/08/23 02:24:45;;;;;;;9.38;3.70;;;;;;;15.40;100.00;101849.09;5011533;28;20054;-51
2023/08/23 02:27:13;;;;;;;6.88;3.80;;;;;;;15.32;100.00;101848.78;5013754;28;20044;-54
2023/08/23 02:29:41;;;;;;;7.15;3.42;;;;;;;15.37;100.00;101847.50;5013593;28;20046;-54
2023/08/23 02:32:10;;;;;;;7.78;3.55;;;;;;;15.40;100.00;101850.91;5013844;28;20042;-55
2023/08/23 02:34:38;;;;;;;8.18;3.50;;;;;;;15.31;100.00;101847.97;5009905;28;20130;-55
2023/08/23 02:37:07;;;;;;;8.02;3.83;;;;;;;15.29;100.00;101844.53;5008184;28;20042;-52
2023/08/23 02:39:35;;;;;;;7.68;3.85;;;;;;;15.24;100.00;101844.00;5009962;28;20078;-54
2023/08/23 02:42:03;;;;;;;5.20;3.40;;;;;;;15.30;100.00;101846.25;5010505;28;20050;-54
2023/08/23 02:44:31;;;;;;;6.65;3.47;;;;;;;15.33;100.00;101840.72;5009863;28;20148;-53
2023/08/23 02:46:59;;;;;;;6.38;3.72;;;;;;;15.23;100.00;101838.81;5009535;28;20044;-53
2023/08/23 02:49:29;;;;;;;6.93;3.63;;;;;;;15.16;100.00;101831.31;5013167;28;20129;-55
2023/08/23 02:51:57;;;;;;;7.75;3.85;;;;;;;15.11;100.00;101817.53;5013446;28;20080;-53
2023/08/23 02:54:25;;;;;;;8.45;3.75;;;;;;;15.03;100.00;101826.00;5013788;28;20049;-53
2023/08/23 02:56:54;;;;;;;7.03;3.22;;;;;;;15.11;100.00;101827.28;5012988;28;20507;-51
2023/08/23 02:59:22;;;;;;;9.15;4.00;;;;;;;15.09;100.00;101829.19;5009805;28;20070;-52
2023/08/23 03:01:50;;;;;;;10.52;4.18;;;;;;;15.08;100.00;101812.44;5010165;28;20050;-53
2023/08/23 03:04:18;;;;;;;7.80;4.15;;;;;;;15.06;100.00;101813.50;5013266;28;20042;-53
2023/08/23 03:06:48;;;;;;;9.20;4.35;;;;;;;15.07;100.00;101815.22;5013040;28;20053;-54
2023/08/23 03:09:16;;;;;;;8.13;4.68;;;;;;;15.03;100.00;101820.69;5028058;28;20057;-52
2023/08/23 03:11:44;;;;;;;8.27;4.07;;;;;;;15.06;100.00;101824.09;5026264;28;20061;-53
2023/08/23 03:14:12;;;;;;;9.68;4.30;;;;;;;15.06;100.00;101819.63;5032557;28;20041;-53
2023/08/23 03:16:40;;;;;;;8.50;4.30;;;;;;;15.12;100.00;101821.00;5030995;28;20447;-54
2023/08/23 03:19:09;;;;;;;7.55;3.55;;;;;;;15.10;100.00;101821.13;5029819;28;20538;-52
2023/08/23 03:21:37;;;;;;;8.27;3.20;;;;;;;15.04;100.00;101818.91;5031217;28;20060;-53
2023/08/23 03:24:07;;;;;;;6.28;3.42;;;;;;;15.00;100.00;101814.78;5031532;28;20052;-54
2023/08/23 03:26:35;;;;;;;7.63;3.70;;;;;;;14.85;100.00;101806.91;5017549;28;20073;-53
2023/08/23 03:29:03;;;;;;;7.32;3.70;;;;;;;14.78;100.00;101808.28;5011921;28;20382;-52
2023/08/23 03:31:32;;;;;;;7.03;3.50;;;;;;;14.75;100.00;101808.50;5012417;28;20141;-54
2023/08/23 03:34:00;;;;;;;7.15;4.05;;;;;;;14.82;100.00;101804.50;5012364;28;20042;-53
2023/08/23 03:36:28;;;;;;;9.02;4.00;;;;;;;14.85;100.00;101803.44;5022784;28;20403;-53
2023/08/23 03:38:56;;;;;;;6.95;4.28;;;;;;;14.94;100.00;101802.78;5032014;28;20068;-52
2023/08/23 03:41:25;;;;;;;8.15;4.90;;;;;;;14.93;100.00;101800.25;5031798;28;20497;-53
2023/08/23 03:43:53;;;;;;;9.07;4.93;;;;;;;14.93;100.00;101814.34;5031577;28;20065;-54
2023/08/23 03:46:24;;;;;;;9.45;4.65;;;;;;;14.92;100.00;101810.00;5025292;28;20034;-53
2023/08/23 03:48:53;;;;;;;9.60;4.93;;;;;;;14.87;100.00;101812.09;5012028;28;20056;-53
2023/08/23 03:51:21;;;;;;;8.15;4.70;;;;;;;14.91;100.00;101812.75;5012198;28;20057;-54
2023/08/23 03:53:50;;;;;;;8.57;5.35;;;;;;;14.95;100.00;101820.38;5027495;28;20088;-53
2023/08/23 03:56:18;;;;;;;8.75;5.03;;;;;;;14.87;100.00;101825.34;5014633;28;20034;-52
2023/08/23 03:58:49;;;;;;;8.68;5.43;;;;;;;14.88;100.00;101811.16;5031831;28;20058;-53
2023/08/23 04:01:17;;;;;;;8.02;4.95;;;;;;;14.81;100.00;101812.53;5031760;28;20053;-51
2023/08/23 04:03:46;;;;;;;9.73;5.10;;;;;;;14.79;100.00;101815.28;5031870;28;20346;-54
2023/08/23 04:06:14;;;;;;;9.88;5.03;;;;;;;14.90;100.00;101816.34;5031618;28;20051;-54
2023/08/23 04:08:42;;;;;;;9.10;5.30;;;;;;;14.86;100.00;101811.28;5030094;28;20060;-54
2023/08/23 04:11:10;;;;;;;9.35;4.90;;;;;;;14.92;100.00;101820.59;5031801;28;20045;-53
2023/08/23 04:13:38;;;;;;;8.18;4.70;;;;;;;14.93;100.00;101819.66;5031610;28;20456;-52
2023/08/23 04:16:12;;;;;;;9.80;4.82;;;;;;;14.85;100.00;101819.31;5031526;28;20571;-53
2023/08/23 04:18:40;;;;;;;7.80;5.25;;;;;;;14.88;100.00;101819.09;5015665;28;20076;-51
2023/08/23 04:21:08;;;;;;;9.25;5.20;;;;;;;14.77;100.00;101822.47;5011555;28;20061;-49
2023/08/23 04:23:36;;;;;;;8.85;5.15;;;;;;;14.70;100.00;101821.19;5026938;28;20141;-52
2023/08/23 04:26:04;;;;;;;8.02;5.15;;;;;;;14.76;100.00;101827.88;5011686;28;20092;-51
2023/08/23 04:28:33;;;;;;;8.60;5.15;;;;;;;14.82;100.00;101824.81;5022461;28;20053;-52
2023/08/23 04:31:01;;;;;;;9.30;5.93;;;;;;;14.78;100.00;101829.47;5031229;28;20101;-53
2023/08/23 04:33:34;;;;;;;8.65;5.43;;;;;;;14.82;100.00;101832.75;5031450;28;20045;-51
2023/08/23 04:36:03;;;;;;;9.73;5.88;;;;;;;14.73;100.00;101831.59;5031037;28;20060;-64
2023/08/23 04:38:31;;;;;;;9.13;6.10;;;;;;;14.74;100.00;101832.41;5021249;28;20045;-64
2023/08/23 04:41:00;;;;;;;9.65;6.47;;;;;;;14.78;100.00;101836.56;5012000;28;20126;-64
2023/08/23 04:43:29;;;;;;;9.93;5.80;;;;;;;14.78;100.00;101833.91;5012197;28;20074;-64
2023/08/23 04:46:00;;;;;;;8.35;5.75;;;;;;;14.83;100.00;101847.69;5015238;28;20056;-65
2023/08/23 04:48:28;;;;;;;9.98;5.82;;;;;;;14.86;100.00;101836.88;5017905;28;20041;-64
2023/08/23 04:50:58;;;;;;;9.05;5.50;;;;;;;14.80;100.00;101837.31;5023882;28;20034;-64
2023/08/23 04:53:27;;;;;;;11.55;5.78;;;;;;;14.80;100.00;101837.31;5010257;28;20054;-64
2023/08/23 04:55:58;;;;;;;8.15;5.35;;;;;;;14.82;100.00;101838.03;5014464;28;20362;-63
2023/08/23 04:58:29;;;;;;;8.65;5.22;;;;;;;14.80;100.00;101842.63;5012501;28;20251;-63
2023/08/23 05:01:03;;;;;;;9.73;5.70;;;;;;;14.77;100.00;101829.59;5012020;28;20492;-62
2023/08/23 05:03:31;;;;;;;8.77;5.45;;;;;;;14.76;100.00;101828.72;5021893;28;20496;-63
2023/08/23 05:06:02;;;;;;;8.40;5.90;;;;;;;14.69;100.00;101830.94;5014517;28;20042;-62
2023/08/23 05:08:31;;;;;;;10.05;7.05;;;;;;;14.67;100.00;101832.84;5029669;28;20041;-63
2023/08/23 05:10:59;;;;;;;9.85;6.38;;;;;;;14.76;100.00;101826.06;5032344;28;20053;-63
2023/08/23 05:13:31;;;;;;;11.10;7.25;;;;;;;14.76;100.00;101826.06;5030766;28;20041;-63
2023/08/23 05:15:59;;;;;;;10.73;7.10;;;;;;;14.74;100.00;101827.13;5031483;28;20041;-63
2023/08/23 05:18:27;;;;;;;12.27;7.57;;;;;;;14.81;100.00;101825.78;5014203;28;20054;-63
2023/08/23 05:20:57;;;;;;;9.60;6.63;;;;;;;14.79;100.00;101820.59;5011166;28;20054;-63
2023/08/23 05:23:27;;;;;;;14.18;7.90;;;;;;;14.82;100.00;101817.72;5010281;28;20045;-62
2023/08/23 05:25:56;;;;;;;12.45;8.73;;;;;;;14.84;100.00;101821.09;5011131;28;20045;-63
2023/08/23 05:28:24;;;;;;;14.73;9.48;;;;;;;14.87;100.00;101817.41;5010939;28;20444;-63
2023/08/23 05:30:52;;;;;;;14.52;9.20;;;;;;;14.90;100.00;101816.34;5018172;28;20504;-63
2023/08/23 05:33:20;;;;;;;11.98;7.95;;;;;;;14.96;100.00;101816.78;5031001;28;20041;-63
2023/08/23 05:35:48;;;;;;;12.85;8.20;;;;;;;14.99;100.00;101824.50;5033180;28;20049;-63
2023/08/23 05:38:16;;;;;;;12.15;7.88;;;;;;;15.04;100.00;101824.22;5031081;28;20523;-63
2023/08/23 05:40:47;;;;;;;12.75;8.05;;;;;;;15.15;100.00;101828.78;5020966;28;20037;-63
2023/08/23 05:43:15;;;;;;;12.18;8.10;;;;;;;15.15;100.00;101829.59;5011276;28;20531;-61
2023/08/23 05:45:47;;;;;;;14.52;10.85;;;;;;;15.15;100.00;101821.66;5011760;28;20413;-63
2023/08/23 05:48:15;;;;;;;14.05;10.45;;;;;;;15.21;100.00;101817.75;5010597;28;20107;-63
2023/08/23 05:50:43;;;;;;;15.52;11.68;;;;;;;15.25;100.00;101816.56;5010830;28;20104;-63
2023/08/23 05:53:18;;;;;;;17.02;12.68;;;;;;;15.31;100.00;101821.44;5010375;28;20048;-60
2023/08/23 05:55:49;;;;;;;16.35;12.60;;;;;;;15.38;100.00;101821.88;5019514;28;20046;-60
2023/08/23 05:58:18;;;;;;;14.73;11.23;;;;;;;15.44;100.00;101820.59;5033216;28;20056;-60
2023/08/23 06:00:47;;;;;;;17.50;12.13;;;;;;;15.45;100.00;101814.34;5033342;28;20111;-60
2023/08/23 06:03:16;;;;;;;13.52;10.65;;;;;;;15.47;100.00;101823.84;5027627;28;20464;-60
2023/08/23 06:05:45;;;;;;;15.45;11.02;;;;;;;15.56;100.00;101811.78;5029974;28;20111;-60
2023/08/23 06:08:13;;;;;;;14.88;10.57;;;;;;;15.65;100.00;101816.41;5044202;28;20519;-60
2023/08/23 06:10:41;;;;;;;14.95;10.52;;;;;;;15.73;100.00;101818.50;5030335;28;20056;-60
2023/08/23 06:13:11;;;;;;;15.57;10.70;;;;;;;15.82;100.00;101822.34;5030302;28;20145;-60
2023/08/23 06:15:39;;;;;;;16.38;10.25;;;;;;;15.90;100.00;101833.25;5012015;28;20447;-60
2023/08/23 06:18:07;;;;;;;15.40;11.50;;;;;;;15.97;100.00;101829.19;5010640;28;20060;-60
2023/08/23 06:20:35;;;;;;;15.05;11.10;;;;;;;16.05;100.00;101821.53;5009968;28;20053;-60
2023/08/23 06:23:03;;;;;;;15.43;11.05;;;;;;;16.15;100.00;101827.00;5007724;28;20475;-60
2023/08/23 06:25:30;;;;;;;16.10;11.32;;;;;;;16.24;100.00;101828.13;5025927;28;20041;-60
2023/08/23 06:27:59;;;;;;;15.23;11.82;;;;;;;16.34;100.00;101831.78;5033237;28;20594;-60
2023/08/23 06:30:30;;;;;;;18.70;12.07;;;;;;;16.45;100.00;101843.44;5032095;28;20068;-60
2023/08/23 06:32:58;;;;;;;15.15;11.10;;;;;;;16.55;100.00;101842.63;5029425;28;20159;-60
2023/08/23 06:35:26;;;;;;;16.15;11.60;;;;;;;16.68;100.00;101839.91;5025162;28;20432;-60
2023/08/23 06:37:55;;;;;;;16.55;11.15;;;;;;;16.80;100.00;101837.28;5008630;28;20045;-60
2023/08/23 06:40:23;;;;;;;15.85;11.50;;;;;;;16.91;100.00;101837.34;5010493;28;20096;-59
2023/08/23 06:42:51;;;;;;;17.92;11.93;;;;;;;17.04;100.00;101840.75;5009733;28;20366;-54
2023/08/23 06:45:19;;;;;;;20.05;12.30;;;;;;;17.18;100.00;101850.31;5010648;28;20088;-53
2023/08/23 06:47:49;;;;;;;16.73;10.13;;;;;;;17.30;100.00;101842.34;5010472;28;20034;-55
2023/08/23 06:50:18;;;;;;;15.27;9.68;;;;;;;17.42;100.00;101846.69;5013048;28;20050;-56
2023/08/23 06:52:46;;;;;;;15.07;9.88;;;;;;;17.54;100.00;101856.38;5008410;28;20054;-55
2023/08/23 06:55:15;;;;;;;16.48;9.82;;;;;;;17.77;100.00;101847.56;5009772;28;20509;-54
2023/08/23 06:57:44;;;;;;;16.15;10.25;;;;;;;17.86;100.00;101855.63;5009297;28;20457;-52
2023/08/23 07:00:13;;;;;;;17.58;9.38;;;;;;;17.99;100.00;101855.50;5019908;28;20045;-56
2023/08/23 07:02:41;;;;;;;15.60;9.10;;;;;;;18.13;100.00;101862.38;5027624;28;20088;-55
2023/08/23 07:05:11;;;;;;;12.40;8.10;;;;;;;18.30;100.00;101863.66;5020071;28;20393;-55
2023/08/23 07:07:39;;;;;;;12.45;7.97;;;;;;;18.44;100.00;101864.34;5009062;28;20115;-55
2023/08/23 07:10:08;;;;;;;13.93;7.93;;;;;;;18.58;100.00;101861.38;5013778;28;20091;-60
2023/08/23 07:12:54;;;;;;;11.38;6.72;;;;;;;18.76;100.00;101864.34;5012627;28;20134;-60
2023/08/23 07:15:22;;;;;;;14.95;8.88;;;;;;;18.91;100.00;101867.56;5012474;28;20042;-59
2023/08/23 07:17:51;;;;;;;13.90;9.20;;;;;;;19.06;100.00;101868.91;5011359;28;20096;-60
2023/08/23 07:20:20;;;;;;;14.50;7.93;;;;;;;19.22;100.00;101865.78;5009578;28;20042;-60
2023/08/23 07:22:49;;;;;;;13.23;8.65;;;;;;;19.42;100.00;101871.22;5008651;28;20068;-60
2023/08/23 07:25:28;;;;;;;11.73;7.68;;;;;;;19.59;100.00;101869.72;5102498;27;20836;-59
2023/08/23 07:27:56;;;;;;;12.38;7.40;;;;;;;19.76;100.00;101873.59;5085564;28;20510;-59
2023/08/23 07:30:28;;;;;;;10.43;6.13;;;;;;;19.98;100.00;101872.56;5086385;28;20062;-59
2023/08/23 07:32:56;;;;;;;10.45;6.57;;;;;;;20.13;100.00;101882.88;5088899;28;20148;-59
2023/08/23 07:35:24;;;;;;;13.73;7.00;;;;;;;20.25;100.00;101881.75;5088682;28;20056;-59
2023/08/23 07:37:52;;;;;;;12.02;6.85;;;;;;;20.42;100.00;101881.06;5088270;28;20047;-59
2023/08/23 07:40:20;;;;;;;10.73;6.30;;;;;;;20.63;100.00;101881.91;5088703;28;20055;-59
2023/08/23 07:42:50;;;;;;;12.63;7.40;;;;;;;20.76;100.00;101894.06;5083397;28;20821;-59
2023/08/23 07:45:18;;;;;;;13.18;6.68;;;;;;;21.00;100.00;101891.91;5085769;28;20052;-59
2023/08/23 07:47:46;;;;;;;10.88;6.93;;;;;;;21.11;100.00;101895.25;5084510;28;20116;-59
2023/08/23 07:50:15;;;;;;;12.13;6.90;;;;;;;21.23;100.00;101889.75;5085235;28;20040;-58
2023/08/23 07:52:43;;;;;;;12.05;6.22;;;;;;;21.39;100.00;101894.47;5087216;28;20040;-59
2023/08/23 07:55:11;;;;;;;11.02;6.55;;;;;;;21.55;100.00;101901.91;5088199;28;20123;-59
2023/08/23 07:57:39;;;;;;;8.68;5.40;;;;;;;21.70;100.00;101896.94;5084944;28;20052;-59
2023/08/23 08:00:10;;;;;;;10.40;5.07;;;;;;;21.86;100.00;101897.13;5085185;28;20082;-59
2023/08/23 08:02:38;;;;;;;9.45;4.63;;;;;;;21.99;100.00;101902.16;5084312;28;20044;-59
2023/08/23 08:05:08;;;;;;;10.73;6.18;;;;;;;22.02;100.00;101899.16;5084051;28;20041;-59
2023/08/23 08:07:36;;;;;;;8.63;5.75;;;;;;;22.06;100.00;101897.88;5083451;28;20098;-59
2023/08/23 08:10:25;;;;;;;9.07;4.90;;;;;;;22.26;100.00;101889.69;5084656;28;20479;-59
2023/08/23 08:12:53;;;;;;;9.65;5.60;;;;;;;22.41;100.00;101892.72;5084827;28;20123;-59
2023/08/23 08:15:23;;;;;;;8.60;4.60;;;;;;;22.65;100.00;101900.16;5085011;28;20054;-59
2023/08/23 08:17:52;;;;;;;9.32;4.95;;;;;;;22.96;100.00;101892.53;5085754;28;20063;-59
2023/08/23 08:20:21;;;;;;;8.02;4.05;;;;;;;23.16;100.00;101886.16;5087415;28;20063;-59
2023/08/23 08:22:49;;;;;;;9.65;4.90;;;;;;;23.32;100.00;101894.31;5087487;28;20064;-59
2023/08/23 08:25:17;;;;;;;10.10;4.60;;;;;;;23.50;100.00;101896.06;5087363;28;20052;-59
2023/08/23 08:27:45;;;;;;;8.57;3.83;;;;;;;23.59;100.00;101898.63;5087894;28;20123;-59
2023/08/23 08:30:15;;;;;;;10.48;4.40;;;;;;;23.59;100.00;101903.19;5085194;28;20048;-59
2023/08/23 08:32:44;;;;;;;7.30;3.45;;;;;;;23.73;100.00;101902.56;5083006;28;20048;-59
2023/08/23 08:35:13;;;;;;;8.65;3.08;;;;;;;24.05;100.00;101906.41;5081593;28;20558;-59
2023/08/23 08:37:41;;;;;;;7.93;3.67;;;;;;;24.26;100.00;101903.25;5068872;28;20056;-59
2023/08/23 08:40:10;;;;;;;9.20;3.22;;;;;;;24.55;100.00;101901.13;5070486;28;20441;-58
2023/08/23 08:42:39;;;;;;;9.35;3.55;;;;;;;24.58;100.00;101908.84;5072828;28;20048;-59
2023/08/23 08:45:11;;;;;;;9.65;4.45;;;;;;;24.67;100.00;101907.88;5073558;28;20072;-59
2023/08/23 08:47:39;;;;;;;13.63;4.20;;;;;;;24.76;100.00;101906.00;5069592;28;20045;-60
2023/08/23 08:50:10;;;;;;;11.45;3.90;;;;;;;25.01;100.00;101901.47;5070810;28;20045;-60
2023/08/23 08:52:41;;;;;;;7.53;3.78;;;;;;;25.18;100.00;101899.56;5068646;28;20044;-57
2023/08/23 08:55:11;;;;;;;6.28;2.92;;;;;;;25.24;100.00;101898.06;5070395;28;20064;-59
2023/08/23 08:57:40;;;;;;;8.27;4.28;;;;;;;25.36;100.00;101893.19;5069121;28;20155;-57
2023/08/23 09:00:10;;;;;;;10.55;4.35;;;;;;;25.47;100.00;101901.72;5073499;28;20032;-58
2023/08/23 09:02:39;;;;;;;6.55;3.83;;;;;;;25.62;100.00;101899.16;5073685;28;20052;-58
2023/08/23 09:05:10;;;;;;;7.45;3.53;;;;;;;25.86;100.00;101901.91;5073687;28;20044;-60
2023/08/23 09:07:39;;;;;;;8.80;3.58;;;;;;;26.03;100.00;101903.53;5072621;28;20059;-61
2023/08/23 09:10:08;;;;;;;7.85;2.88;;;;;;;26.06;100.00;101905.06;5070729;28;20429;-60
2023/08/23 09:12:37;;;;;;;6.05;2.80;;;;;;;26.34;100.00;101908.06;5070953;28;20114;-59
2023/08/23 09:15:06;;;;;;;6.72;3.20;;;;;;;26.45;100.00;101910.34;5072158;28;20041;-59
2023/08/23 09:17:35;;;;;;;6.85;3.00;;;;;;;26.68;100.00;101908.66;5071446;28;20068;-58
2023/08/23 09:20:07;;;;;;;7.90;3.25;;;;;;;26.78;100.00;101901.19;5070069;28;20048;-58
2023/08/23 09:22:37;;;;;;;9.18;3.45;;;;;;;26.61;100.00;101901.31;5070452;28;20499;-59
2023/08/23 09:25:08;;;;;;;7.43;3.28;;;;;;;26.68;100.00;101898.69;5076362;28;20512;-57
2023/08/23 09:27:39;;;;;;;7.60;2.60;;;;;;;26.93;100.00;101880.47;5073363;28;20044;-57
2023/08/23 09:30:08;;;;;;;6.57;2.58;;;;;;;27.32;100.00;101878.53;5064294;28;20053;-57
2023/08/23 09:32:41;;;;;;;6.72;2.40;;;;;;;27.22;100.00;101875.28;5069867;28;20541;-57
2023/08/23 09:35:13;;;;;;;6.20;3.00;;;;;;;27.62;100.00;101874.00;5082849;28;20071;-60
2023/08/23 09:37:47;;;;;;;6.83;3.10;;;;;;;27.99;100.00;101876.69;5073793;28;20518;-58
2023/08/23 09:40:21;;;;;;;8.90;3.45;;;;;;;27.58;94.75;101867.31;5078524;28;20388;-57
2023/08/23 09:42:49;;;;;;;;;;;;;;;27.94;94.12;101871.88;5070688;28;20530;-58
2023/08/23 09:45:20;;;;;;;5.70;2.63;;;;;;;27.76;87.91;101872.28;5070481;28;19967;-54
2023/08/23 09:47:52;;;;;;;5.82;3.10;;;;;;;27.65;88.55;101870.91;5067233;28;20040;-56
2023/08/23 09:50:25;;;;;;;5.25;2.42;;;;;;;27.61;85.43;101876.88;5070385;28;20079;-57
2023/08/23 09:53:00;;;;;;;4.78;2.10;;;;;;;27.88;87.91;101882.59;5071363;28;20129;-58
2023/08/23 09:55:30;;;;;;;4.72;2.00;;;;;;;28.13;86.10;101883.97;5070870;28;20048;-55
2023/08/23 09:58:00;;;;;;;7.20;2.92;;;;;;;28.20;84.15;101878.63;5082758;28;20048;-58
2023/08/23 10:00:29;;;;;;;5.00;2.55;;;;;;;28.30;87.06;101862.91;5079574;28;20044;-54
2023/08/23 10:02:59;;;;;;;6.18;2.90;;;;;;;28.19;80.38;101857.19;5091090;28;20044;-56
2023/08/23 10:05:28;;;;;;;6.32;2.75;;;;;;;28.57;82.89;101865.03;5091085;28;20089;-57
2023/08/23 10:08:02;;;;;;;6.47;2.53;;;;;;;28.94;79.10;101866.56;5088208;28;20059;-57
2023/08/23 10:10:31;;;;;;;6.55;2.97;;;;;;;28.60;75.55;101872.75;5068881;28;20758;-55
2023/08/23 10:13:04;;;;;;;6.90;2.25;;;;;;;28.64;77.82;101874.06;5069774;28;20101;-56
2023/08/23 10:15:33;;;;;;;;;;;;;;;28.96;76.41;101864.53;5073384;28;20049;-55
2023/08/23 10:18:03;;;;;;;4.78;1.95;;;;;;;29.08;72.79;101862.09;5070401;28;20630;-58
2023/08/23 10:20:35;;;;;;;8.18;2.33;;;;;;;29.33;72.19;101867.88;5068800;28;20044;-59
2023/08/23 10:23:11;;;;;;;4.70;1.98;;;;;;;29.57;71.55;101862.16;5047796;28;20055;-57
2023/08/23 10:25:39;;;;;;;5.30;2.45;;;;;;;29.61;70.33;101863.41;5049986;28;20545;-57
2023/08/23 10:28:08;;;;;;;6.45;2.50;;;;;;;29.92;71.02;101871.06;5052355;28;20632;-58
2023/08/23 10:30:41;;;;;;;6.53;3.22;;;;;;;29.88;68.59;101871.69;5052255;28;20496;-58
2023/08/23 10:33:11;;;;;;;6.35;2.25;;;;;;;30.41;71.19;101862.81;5068947;28;20045;-58
2023/08/23 10:35:40;;;;;;;7.78;2.50;;;;;;;30.12;67.66;101868.41;5070251;28;20052;-57
2023/08/23 10:38:10;;;;;;;5.43;2.10;;;;;;;29.94;67.41;101863.56;5066538;28;20060;-58
2023/08/23 10:40:40;;;;;;;6.07;2.08;;;;;;;30.44;67.65;101855.09;5068751;28;20048;-57
2023/08/23 10:43:13;;;;;;;5.57;1.90;;;;;;;30.54;66.11;101856.56;5069542;28;20052;-57
2023/08/23 10:45:52;;;;;;;7.70;2.38;;;;;;;30.83;63.49;101858.84;5068140;28;20398;-57
2023/08/23 10:48:23;;;;;;;6.35;2.58;;;;;;;30.91;57.77;101841.50;5068472;28;20052;-57
2023/08/23 10:50:53;;;;;;;5.82;2.13;;;;;;;30.81;65.35;101849.22;5071491;28;20049;-58
2023/08/23 10:53:24;;;;;;;6.30;2.63;;;;;;;31.19;64.01;101852.09;5071880;28;20040;-56
2023/08/23 10:55:57;;;;;;;6.82;2.63;;;;;;;31.06;60.42;101843.16;5069345;28;20051;-58
2023/08/23 10:58:26;;;;;;;6.43;2.30;;;;;;;31.39;59.72;101840.34;5068645;28;20068;-56
2023/08/23 11:00:55;;;;;;;4.05;1.77;;;;;;;30.83;57.51;101834.41;5071004;28;20470;-58
2023/08/23 11:03:24;;;;;;;4.88;1.90;;;;;;;31.24;58.98;101837.06;5068826;28;20410;-56
2023/08/23 11:05:52;;;;;;;4.53;2.05;;;;;;;31.28;62.70;101833.69;5066649;28;20135;-57
2023/08/23 11:08:22;;;;;;;6.82;1.98;;;;;;;30.95;57.29;101833.75;5047181;28;20076;-58
2023/08/23 11:10:54;;;;;;;4.88;1.75;;;;;;;31.28;55.85;101835.59;5048312;28;20056;-58
2023/08/23 11:13:22;;;;;;;4.47;1.88;;;;;;;31.56;56.10;101832.50;5047374;28;20407;-58
2023/08/23 11:15:50;;;;;;;5.63;2.03;;;;;;;31.55;54.17;101827.31;5049739;28;20045;-58
2023/08/23 11:18:18;;;;;;;5.80;2.35;;;;;;;31.49;54.05;101824.38;5069527;28;20056;-57
2023/08/23 11:20:47;;;;;;;5.25;2.20;;;;;;;31.36;54.12;101832.63;5069589;28;20048;-53
2023/08/23 11:23:15;;;;;;;5.93;2.00;;;;;;;31.45;54.90;101835.91;5077284;28;20422;-55
2023/08/23 11:25:45;;;;;;;4.47;2.13;;;;;;;31.63;52.83;101830.66;5074376;28;20137;-56
2023/08/23 11:28:15;;;;;;;4.25;1.90;;;;;;;31.81;53.59;101819.03;5065745;28;20127;-53